createdAt,value
2022-12-31T00:01:44.890Z,7.61
2022-12-31T00:04:14.777Z,7.49
2022-12-31T00:06:44.692Z,7.48
2022-12-31T00:09:14.497Z,7.57
2022-12-31T00:11:44.352Z,7.67
2022-12-31T00:14:14.903Z,7.62
2022-12-31T00:16:44.764Z,7.66
2022-12-31T00:19:13.494Z,7.61
2022-12-31T00:21:43.478Z,7.63
2022-12-31T00:24:13.056Z,7.65
2022-12-31T00:26:42.814Z,7.68
2022-12-31T00:29:12.664Z,7.66
2022-12-31T00:31:42.445Z,7.61
2022-12-31T00:34:12.265Z,7.58
2022-12-31T00:36:42.628Z,7.61
2022-12-31T00:39:12.516Z,7.57
2022-12-31T00:41:44.042Z,7.55
2022-12-31T00:44:13.359Z,7.51
2022-12-31T00:49:12.165Z,7.53
2022-12-31T00:51:40.291Z,7.51
2022-12-31T00:54:10.110Z,7.45
2022-12-31T00:56:37.186Z,7.39
2022-12-31T00:59:05.519Z,7.41
2022-12-31T01:01:38.262Z,7.51
2022-12-31T01:04:11.073Z,7.56
2022-12-31T01:06:42.750Z,7.63
2022-12-31T01:09:17.723Z,7.72
2022-12-31T01:11:51.168Z,7.77
2022-12-31T01:14:20.937Z,7.92
2022-12-31T01:16:54.165Z,7.98
2022-12-31T01:19:29.562Z,8.13
2022-12-31T01:21:58.829Z,8.29
2022-12-31T01:24:26.905Z,8.48
2022-12-31T01:26:57.764Z,8.60
2022-12-31T01:29:26.851Z,8.54
2022-12-31T01:31:56.958Z,8.71
2022-12-31T01:34:26.725Z,8.83
2022-12-31T01:36:56.636Z,8.85
2022-12-31T01:39:26.591Z,8.91
2022-12-31T01:41:56.559Z,8.94
2022-12-31T01:44:26.240Z,8.97
2022-12-31T01:47:04.112Z,8.99
2022-12-31T01:49:47.885Z,9.06
2022-12-31T01:52:22.927Z,9.06
2022-12-31T01:55:00.117Z,9.19
2022-12-31T01:57:31.245Z,9.26
2022-12-31T02:00:01.985Z,9.18
2022-12-31T02:02:31.147Z,9.05
2022-12-31T02:05:02.690Z,9.02
2022-12-31T02:07:29.597Z,8.94
2022-12-31T02:09:59.591Z,8.86
2022-12-31T02:12:26.606Z,8.83
2022-12-31T02:14:56.524Z,8.79
2022-12-31T02:17:47.984Z,8.74
2022-12-31T02:21:14.421Z,8.63
2022-12-31T02:24:15.255Z,8.54
2022-12-31T02:27:07.011Z,8.52
2022-12-31T02:30:04.166Z,8.45
2022-12-31T02:33:02.658Z,8.41
2022-12-31T02:35:53.830Z,8.42
2022-12-31T02:38:39.083Z,8.32
2022-12-31T02:41:34.776Z,8.36
2022-12-31T02:44:26.511Z,8.37
2022-12-31T02:47:23.491Z,8.31
2022-12-31T02:50:22.101Z,8.30
2022-12-31T02:53:28.271Z,8.38
2022-12-31T02:56:07.419Z,8.36
2022-12-31T02:59:17.330Z,8.40
2022-12-31T03:02:11.924Z,8.46
2022-12-31T03:04:53.668Z,8.44
2022-12-31T03:07:27.676Z,8.44
2022-12-31T03:09:59.139Z,8.53
2022-12-31T03:12:48.860Z,8.60
2022-12-31T03:15:28.309Z,8.59
2022-12-31T03:18:15.200Z,8.59
2022-12-31T03:21:09.876Z,8.63
2022-12-31T03:23:43.207Z,8.76
2022-12-31T03:26:13.100Z,8.83
2022-12-31T03:28:47.543Z,8.89
2022-12-31T03:31:16.438Z,8.94
2022-12-31T03:33:45.523Z,9.12
2022-12-31T03:36:15.072Z,9.01
2022-12-31T03:38:48.471Z,9.19
2022-12-31T03:41:20.709Z,9.21
2022-12-31T03:43:47.580Z,9.31
2022-12-31T03:46:14.927Z,9.25
2022-12-31T03:48:43.287Z,9.19
2022-12-31T03:51:11.707Z,9.30
2022-12-31T03:53:40.065Z,9.38
2022-12-31T03:56:08.530Z,9.39
2022-12-31T03:58:36.984Z,9.47
2022-12-31T04:01:05.520Z,9.61
2022-12-31T04:03:33.797Z,9.69
2022-12-31T04:06:02.168Z,9.62
2022-12-31T04:08:30.651Z,9.49
2022-12-31T04:10:59.032Z,9.53
2022-12-31T04:13:27.495Z,9.50
2022-12-31T04:15:55.925Z,9.58
2022-12-31T04:18:24.885Z,9.68
2022-12-31T04:20:52.798Z,9.70
2022-12-31T04:23:21.143Z,9.67
2022-12-31T04:25:49.649Z,9.58
2022-12-31T04:28:18.003Z,9.65
2022-12-31T04:30:46.460Z,9.88
2022-12-31T04:33:15.006Z,9.89
2022-12-31T04:35:43.993Z,9.85
2022-12-31T04:38:11.678Z,9.79
2022-12-31T04:41:00.096Z,9.92
2022-12-31T04:43:30.617Z,10.22
2022-12-31T04:46:00.094Z,10.19
2022-12-31T04:48:29.980Z,10.14
2022-12-31T04:50:59.815Z,10.05
2022-12-31T04:53:30.015Z,9.99
2022-12-31T04:55:59.844Z,10.02
2022-12-31T04:58:29.735Z,10.19
2022-12-31T05:00:59.992Z,10.39
2022-12-31T05:03:30.403Z,10.40
2022-12-31T05:06:08.248Z,10.47
2022-12-31T05:08:38.243Z,10.45
2022-12-31T05:11:08.129Z,10.42
2022-12-31T05:13:35.615Z,10.48
2022-12-31T05:16:06.654Z,10.60
2022-12-31T05:18:37.091Z,10.57
2022-12-31T05:21:08.089Z,10.60
2022-12-31T05:23:36.465Z,10.65
2022-12-31T05:26:06.263Z,10.68
2022-12-31T05:28:36.098Z,10.81
2022-12-31T05:31:05.745Z,10.65
2022-12-31T05:33:34.193Z,10.55
2022-12-31T05:36:02.517Z,10.46
2022-12-31T05:38:31.192Z,10.41
2022-12-31T05:41:08.987Z,10.33
2022-12-31T05:43:38.723Z,10.39
2022-12-31T05:46:08.983Z,10.34
2022-12-31T05:48:38.915Z,10.31
2022-12-31T05:51:08.714Z,10.35
2022-12-31T05:53:38.502Z,10.34
2022-12-31T05:56:08.265Z,10.35
2022-12-31T05:58:38.137Z,10.35
2022-12-31T06:01:07.905Z,10.35
2022-12-31T06:03:37.705Z,10.43
2022-12-31T06:06:07.989Z,10.39
2022-12-31T06:08:37.751Z,10.45
2022-12-31T06:11:07.901Z,10.62
2022-12-31T06:13:37.705Z,10.62
2022-12-31T06:16:09.925Z,10.65
2022-12-31T06:18:40.022Z,10.65
2022-12-31T06:21:09.810Z,10.73
2022-12-31T06:23:41.110Z,10.81
2022-12-31T06:26:11.042Z,10.89
2022-12-31T06:28:41.912Z,11.03
2022-12-31T06:31:14.915Z,11.06
2022-12-31T06:33:46.854Z,11.05
2022-12-31T06:36:16.694Z,10.95
2022-12-31T06:38:46.489Z,11.11
2022-12-31T06:41:18.302Z,11.15
2022-12-31T06:43:48.644Z,11.31
2022-12-31T06:46:18.931Z,11.36
2022-12-31T06:48:48.669Z,11.45
2022-12-31T06:51:21.467Z,11.48
2022-12-31T06:53:51.950Z,11.71
2022-12-31T06:56:34.079Z,11.88
2022-12-31T06:59:05.137Z,11.97
2022-12-31T07:01:58.738Z,12.00
2022-12-31T07:05:26.207Z,12.00
2022-12-31T07:08:08.902Z,12.07
2022-12-31T07:10:53.524Z,12.10
2022-12-31T07:13:58.050Z,12.16
2022-12-31T07:16:53.974Z,12.24
2022-12-31T07:19:38.707Z,12.24
2022-12-31T07:22:16.884Z,12.36
2022-12-31T07:24:45.474Z,12.40
2022-12-31T07:27:21.419Z,12.35
2022-12-31T07:30:02.755Z,12.47
2022-12-31T07:33:07.029Z,12.59
2022-12-31T07:36:05.995Z,12.52
2022-12-31T07:38:50.943Z,12.49
2022-12-31T07:41:57.353Z,12.58
2022-12-31T07:44:51.827Z,12.65
2022-12-31T07:47:27.680Z,12.65
2022-12-31T07:49:58.507Z,12.60
2022-12-31T07:52:28.769Z,12.71
2022-12-31T07:54:58.543Z,12.82
2022-12-31T07:57:41.082Z,12.87
2022-12-31T08:00:16.140Z,12.83
2022-12-31T08:03:14.802Z,12.88
2022-12-31T08:05:44.601Z,12.95
2022-12-31T08:09:04.743Z,12.96
2022-12-31T08:11:46.327Z,13.03
2022-12-31T08:14:17.915Z,13.06
2022-12-31T08:16:48.956Z,12.94
2022-12-31T08:19:33.183Z,12.83
2022-12-31T08:22:37.157Z,12.91
2022-12-31T08:25:35.284Z,13.14
2022-12-31T08:28:34.214Z,13.13
2022-12-31T08:31:24.019Z,13.19
2022-12-31T08:34:41.157Z,13.29
2022-12-31T08:37:24.998Z,13.35
2022-12-31T08:40:11.335Z,13.40
2022-12-31T08:43:33.379Z,13.41
2022-12-31T08:46:07.965Z,13.30
2022-12-31T08:48:42.385Z,13.46
2022-12-31T08:51:22.150Z,13.48
2022-12-31T08:53:53.496Z,13.53
2022-12-31T08:56:50.461Z,13.55
2022-12-31T08:59:49.017Z,13.67
2022-12-31T09:02:44.604Z,13.66
2022-12-31T09:05:59.367Z,13.78
2022-12-31T09:09:03.331Z,13.99
2022-12-31T09:12:03.343Z,13.98
2022-12-31T09:14:54.379Z,13.91
2022-12-31T09:17:38.955Z,14.02
2022-12-31T09:20:20.288Z,14.06
2022-12-31T09:22:51.385Z,14.06
2022-12-31T09:25:24.526Z,14.31
2022-12-31T09:28:19.751Z,14.49
2022-12-31T09:31:28.943Z,14.37
2022-12-31T09:34:41.683Z,14.40
2022-12-31T09:37:46.599Z,14.63
2022-12-31T09:40:28.295Z,14.82
2022-12-31T09:43:03.875Z,15.06
2022-12-31T09:45:46.529Z,15.32
2022-12-31T09:48:40.471Z,15.10
2022-12-31T09:51:42.501Z,14.83
2022-12-31T09:54:38.295Z,15.03
2022-12-31T09:57:38.212Z,15.23
2022-12-31T10:00:52.836Z,15.46
2022-12-31T10:03:51.989Z,15.21
2022-12-31T10:06:39.700Z,15.28
2022-12-31T10:10:02.773Z,15.09
2022-12-31T10:13:08.241Z,15.06
2022-12-31T10:16:13.571Z,15.19
2022-12-31T10:19:36.514Z,15.41
2022-12-31T10:22:40.716Z,15.46
2022-12-31T10:25:57.433Z,15.39
2022-12-31T10:29:27.841Z,15.49
2022-12-31T10:32:38.719Z,16.06
2022-12-31T10:36:05.095Z,16.44
2022-12-31T10:39:13.490Z,16.16
2022-12-31T10:42:31.495Z,16.05
2022-12-31T10:45:20.251Z,16.22
2022-12-31T10:48:33.264Z,16.10
2022-12-31T10:51:47.633Z,15.92
2022-12-31T10:55:02.736Z,15.83
2022-12-31T10:58:11.582Z,15.91
2022-12-31T11:00:54.597Z,15.94
2022-12-31T11:04:01.023Z,15.94
2022-12-31T11:07:07.537Z,16.10
2022-12-31T11:10:21.534Z,16.50
2022-12-31T11:13:41.229Z,16.68
2022-12-31T11:16:20.742Z,16.40
2022-12-31T11:19:11.649Z,16.21
2022-12-31T11:22:17.150Z,16.18
2022-12-31T11:25:11.850Z,16.08
2022-12-31T11:28:11.596Z,16.08
2022-12-31T11:31:18.942Z,15.96
2022-12-31T11:34:23.091Z,16.04
2022-12-31T11:37:33.367Z,15.86
2022-12-31T11:40:33.961Z,16.05
2022-12-31T11:44:00.447Z,16.21
2022-12-31T11:47:08.524Z,16.36
2022-12-31T11:50:03.687Z,16.23
2022-12-31T11:53:04.179Z,16.21
2022-12-31T11:55:59.068Z,16.24
2022-12-31T11:58:30.137Z,16.43
2022-12-31T12:01:11.782Z,16.52
2022-12-31T12:03:44.817Z,16.58
2022-12-31T12:06:20.091Z,16.53
2022-12-31T12:08:56.921Z,16.53
2022-12-31T12:11:31.992Z,16.38
2022-12-31T12:14:02.019Z,16.38
2022-12-31T12:16:31.951Z,16.37
2022-12-31T12:19:16.603Z,16.35
2022-12-31T12:21:49.349Z,16.36
2022-12-31T12:24:25.439Z,16.36
2022-12-31T12:26:53.296Z,16.31
2022-12-31T12:29:30.014Z,16.25
2022-12-31T12:32:27.416Z,16.31
2022-12-31T12:34:54.799Z,16.42
2022-12-31T12:37:26.441Z,16.42
2022-12-31T12:40:33.898Z,16.36
2022-12-31T12:43:03.936Z,16.26
2022-12-31T12:45:51.435Z,16.26
2022-12-31T12:48:32.799Z,16.32
2022-12-31T12:51:31.673Z,16.32
2022-12-31T12:54:47.985Z,16.37
2022-12-31T12:57:34.190Z,16.42
2022-12-31T13:00:16.116Z,16.46
2022-12-31T13:03:01.906Z,16.42
2022-12-31T13:05:56.660Z,16.45
2022-12-31T13:08:32.352Z,16.44
2022-12-31T13:11:42.360Z,16.56
2022-12-31T13:14:42.865Z,16.49
2022-12-31T13:17:27.542Z,16.66
2022-12-31T13:20:26.116Z,16.53
2022-12-31T13:23:20.604Z,16.65
2022-12-31T13:26:20.040Z,16.66
2022-12-31T13:28:52.975Z,16.67
2022-12-31T13:31:34.136Z,16.63
2022-12-31T13:34:13.293Z,16.50
2022-12-31T13:36:45.009Z,16.59
2022-12-31T13:39:23.473Z,16.56
2022-12-31T13:42:22.285Z,16.58
2022-12-31T13:44:59.360Z,16.58
2022-12-31T13:47:58.815Z,16.56
2022-12-31T13:50:39.117Z,16.61
2022-12-31T13:53:45.068Z,16.60
2022-12-31T13:56:25.013Z,16.53
2022-12-31T13:59:28.463Z,16.53
2022-12-31T14:02:26.264Z,16.60
2022-12-31T14:05:11.466Z,16.55
2022-12-31T14:08:02.500Z,16.70
2022-12-31T14:10:56.719Z,16.58
2022-12-31T14:14:18.577Z,16.48
2022-12-31T14:17:02.463Z,16.60
2022-12-31T14:20:00.739Z,16.53
2022-12-31T14:22:58.884Z,16.39
2022-12-31T14:25:34.800Z,16.40
2022-12-31T14:28:10.331Z,16.47
2022-12-31T14:30:44.707Z,16.34
2022-12-31T14:33:40.860Z,16.29
2022-12-31T14:36:18.069Z,16.19
2022-12-31T14:39:18.337Z,16.18
2022-12-31T14:42:11.385Z,16.16
2022-12-31T14:45:30.071Z,16.09
2022-12-31T14:48:40.865Z,15.95
2022-12-31T14:51:13.025Z,15.90
2022-12-31T14:53:54.373Z,15.88
2022-12-31T14:56:45.950Z,15.94
2022-12-31T14:59:32.235Z,15.72
2022-12-31T15:02:27.345Z,15.68
2022-12-31T15:05:12.532Z,15.71
2022-12-31T15:07:54.436Z,15.68
2022-12-31T15:10:48.143Z,15.68
2022-12-31T15:13:56.044Z,15.69
2022-12-31T15:16:51.162Z,15.62
2022-12-31T15:19:48.713Z,15.80
2022-12-31T15:22:24.333Z,15.79
2022-12-31T15:24:54.569Z,15.63
2022-12-31T15:27:37.028Z,15.64
2022-12-31T15:30:07.523Z,15.65
2022-12-31T15:32:46.589Z,15.70
2022-12-31T15:35:21.912Z,15.61
2022-12-31T15:38:15.253Z,15.62
2022-12-31T15:40:52.482Z,15.50
2022-12-31T15:43:25.269Z,15.42
2022-12-31T15:45:57.688Z,15.39
2022-12-31T15:49:10.252Z,15.40
2022-12-31T15:52:01.589Z,15.46
2022-12-31T15:54:44.372Z,15.54
2022-12-31T15:57:30.799Z,15.38
2022-12-31T16:00:06.831Z,15.41
2022-12-31T16:02:42.995Z,15.29
2022-12-31T16:05:26.597Z,15.16
2022-12-31T16:07:59.585Z,15.11
2022-12-31T16:10:32.898Z,15.37
2022-12-31T16:13:02.806Z,15.38
2022-12-31T16:15:34.335Z,15.42
2022-12-31T16:18:10.705Z,15.32
2022-12-31T16:20:48.457Z,15.37
2022-12-31T16:23:27.537Z,15.49
2022-12-31T16:26:02.113Z,15.52
2022-12-31T16:28:34.286Z,15.59
2022-12-31T16:31:14.900Z,15.59
2022-12-31T16:33:46.598Z,15.70
2022-12-31T16:36:23.903Z,15.78
2022-12-31T16:38:59.385Z,15.86
2022-12-31T16:41:43.478Z,15.88
2022-12-31T16:44:28.859Z,15.94
2022-12-31T16:47:04.205Z,15.98
2022-12-31T16:49:39.052Z,16.02
2022-12-31T16:52:27.757Z,16.07
2022-12-31T16:54:58.973Z,16.14
2022-12-31T16:57:32.370Z,16.02
2022-12-31T17:00:07.002Z,16.08
2022-12-31T17:02:45.375Z,16.10
2022-12-31T17:05:27.950Z,16.04
2022-12-31T17:07:57.988Z,16.07
2022-12-31T17:10:36.410Z,16.07
2022-12-31T17:13:28.104Z,16.10
2022-12-31T17:16:00.770Z,16.07
2022-12-31T17:18:38.628Z,16.14
2022-12-31T17:21:10.853Z,16.05
2022-12-31T17:23:41.442Z,16.03
2022-12-31T17:26:23.822Z,15.92
2022-12-31T17:28:56.538Z,16.05
2022-12-31T17:31:36.753Z,15.99
2022-12-31T17:34:12.476Z,16.00
2022-12-31T17:36:58.268Z,15.92
2022-12-31T17:39:44.590Z,15.92
2022-12-31T17:42:32.117Z,16.11
2022-12-31T17:45:09.311Z,16.06
2022-12-31T17:47:45.462Z,16.13
2022-12-31T17:50:15.309Z,16.12
2022-12-31T17:52:45.919Z,16.26
2022-12-31T17:55:16.403Z,16.20
2022-12-31T17:57:58.138Z,16.09
2022-12-31T18:00:28.195Z,16.07
2022-12-31T18:02:58.168Z,16.03
2022-12-31T18:05:28.068Z,15.96
2022-12-31T18:07:57.831Z,16.04
2022-12-31T18:10:32.209Z,16.03
2022-12-31T18:13:05.766Z,16.03
2022-12-31T18:15:35.537Z,15.93
2022-12-31T18:18:25.262Z,16.00
2022-12-31T18:21:22.204Z,16.09
2022-12-31T18:26:24.713Z,16.04
2022-12-31T18:28:52.991Z,16.03
2022-12-31T18:31:24.779Z,15.99
2022-12-31T18:33:58.761Z,16.02
2022-12-31T18:36:29.155Z,15.90
2022-12-31T18:38:58.908Z,15.72
2022-12-31T18:41:38.086Z,15.61
2022-12-31T18:44:14.996Z,15.56
2022-12-31T18:46:44.867Z,15.41
2022-12-31T18:49:14.670Z,15.28
2022-12-31T18:51:44.507Z,15.18
2022-12-31T18:54:14.473Z,15.23
2022-12-31T18:56:47.662Z,15.16
2022-12-31T18:59:19.219Z,15.14
2022-12-31T19:01:49.329Z,15.07
2022-12-31T19:04:27.138Z,14.96
2022-12-31T19:06:58.025Z,14.88
2022-12-31T19:12:19.196Z,14.90
2022-12-31T19:14:48.931Z,14.80
2022-12-31T19:17:18.733Z,14.77
2022-12-31T19:19:48.695Z,14.75
2022-12-31T19:22:18.459Z,14.74
2022-12-31T19:24:48.295Z,14.67
2022-12-31T19:27:18.121Z,14.71
2022-12-31T19:29:47.942Z,14.75
2022-12-31T19:32:17.733Z,14.75
2022-12-31T19:34:47.532Z,14.85
2022-12-31T19:37:17.231Z,15.00
2022-12-31T19:39:47.009Z,14.94
2022-12-31T19:42:17.109Z,14.73
2022-12-31T19:44:46.835Z,14.72
2022-12-31T19:47:16.630Z,14.68
2022-12-31T19:49:46.616Z,14.76
2022-12-31T19:52:16.394Z,14.63
2022-12-31T19:54:46.364Z,14.58
2022-12-31T19:57:16.240Z,14.69
2022-12-31T19:59:44.585Z,14.74
2022-12-31T20:02:13.164Z,14.61
2022-12-31T20:04:42.406Z,14.52
2022-12-31T20:07:09.884Z,14.45
2022-12-31T20:09:38.329Z,14.61
2022-12-31T20:12:11.364Z,14.72
2022-12-31T20:14:41.510Z,14.77
2022-12-31T20:17:11.900Z,14.72
2022-12-31T20:19:41.574Z,14.72
2022-12-31T20:22:11.545Z,14.77
2022-12-31T20:24:41.419Z,14.72
2022-12-31T20:27:18.096Z,14.77
2022-12-31T20:29:48.242Z,14.82
2022-12-31T20:32:18.047Z,14.75
2022-12-31T20:34:48.085Z,14.81
2022-12-31T20:37:18.024Z,14.86
2022-12-31T20:39:47.808Z,14.89
2022-12-31T20:42:17.841Z,14.85
2022-12-31T20:44:47.695Z,14.83
2022-12-31T20:47:16.088Z,14.90
2022-12-31T20:50:10.191Z,14.95
2022-12-31T20:52:34.370Z,15.11
2022-12-31T20:55:05.060Z,15.20
2022-12-31T20:57:35.276Z,15.12
2022-12-31T21:00:06.581Z,15.18
2022-12-31T21:02:42.044Z,15.22
2022-12-31T21:05:12.304Z,15.17
2022-12-31T21:07:42.269Z,15.11
2022-12-31T21:10:12.008Z,15.05
2022-12-31T21:12:43.494Z,15.07
2022-12-31T21:15:13.941Z,15.05
2022-12-31T21:17:43.803Z,15.12
2022-12-31T21:20:13.701Z,15.22
2022-12-31T21:22:43.491Z,15.34
2022-12-31T21:25:13.257Z,15.26
2022-12-31T21:27:43.145Z,15.16
2022-12-31T21:30:18.959Z,15.11
2022-12-31T21:32:49.452Z,15.10
2022-12-31T21:38:09.252Z,15.25
2022-12-31T21:40:37.732Z,15.31
2022-12-31T21:43:07.727Z,15.22
2022-12-31T21:45:38.321Z,15.17
2022-12-31T21:48:21.703Z,15.16
2022-12-31T21:50:55.605Z,15.24
2022-12-31T21:53:30.516Z,15.21
2022-12-31T21:56:08.620Z,15.22
2022-12-31T21:59:15.847Z,15.22
2022-12-31T22:02:04.364Z,15.07
2022-12-31T22:07:23.941Z,15.24
2022-12-31T22:09:53.699Z,15.13
2022-12-31T22:12:23.746Z,15.10
2022-12-31T22:15:14.789Z,15.06
2022-12-31T22:17:43.330Z,15.01
2022-12-31T22:20:28.807Z,15.01
2022-12-31T22:22:58.994Z,14.83
2022-12-31T22:25:27.447Z,14.81
2022-12-31T22:28:36.236Z,14.89
2022-12-31T22:30:48.555Z,14.83
2022-12-31T22:33:18.766Z,14.72
2022-12-31T22:36:07.479Z,14.77
2022-12-31T22:38:36.972Z,14.76
2022-12-31T22:41:15.061Z,14.90
2022-12-31T22:43:49.136Z,14.85
2022-12-31T22:46:25.878Z,14.80
2022-12-31T22:48:59.442Z,14.87
2022-12-31T22:51:56.390Z,14.77
2022-12-31T22:54:21.560Z,14.77
2022-12-31T22:56:51.543Z,14.84
2022-12-31T22:59:21.764Z,14.68
2022-12-31T23:01:51.530Z,14.78
2022-12-31T23:04:21.457Z,14.78
2022-12-31T23:06:51.261Z,14.74
2022-12-31T23:09:40.224Z,14.64
2022-12-31T23:12:13.498Z,14.62
2022-12-31T23:15:02.081Z,14.75
2022-12-31T23:17:50.832Z,14.69
2022-12-31T23:20:42.877Z,14.62
2022-12-31T23:23:16.410Z,14.57
2022-12-31T23:25:51.898Z,14.47
2022-12-31T23:28:25.532Z,14.40
2022-12-31T23:30:55.248Z,14.50
2022-12-31T23:33:26.416Z,14.48
2022-12-31T23:36:07.782Z,14.65
2022-12-31T23:38:37.609Z,14.64
2022-12-31T23:41:20.612Z,14.56
2022-12-31T23:43:50.705Z,14.41
2022-12-31T23:46:20.552Z,14.35
2022-12-31T23:48:50.321Z,14.33
2022-12-31T23:51:21.671Z,14.41
2022-12-31T23:53:51.677Z,14.39
2022-12-31T23:56:23.917Z,14.51
2022-12-31T23:58:59.157Z,14.40
